createdAt,value
2022-08-25T00:00:50.296Z,53.43
2022-08-25T00:03:17.584Z,53.46
2022-08-25T00:05:45.488Z,53.55
2022-08-25T00:08:12.193Z,53.61
2022-08-25T00:10:39.363Z,53.53
2022-08-25T00:13:07.617Z,53.46
2022-08-25T00:15:34.763Z,53.51
2022-08-25T00:18:02.060Z,53.15
2022-08-25T00:20:29.924Z,53.14
2022-08-25T00:22:56.635Z,52.92
2022-08-25T00:25:23.590Z,52.72
2022-08-25T00:27:52.448Z,52.66
2022-08-25T00:30:20.578Z,52.53
2022-08-25T00:32:56.806Z,52.64
2022-08-25T00:35:25.969Z,52.80
2022-08-25T00:37:52.722Z,52.80
2022-08-25T00:40:20.243Z,52.80
2022-08-25T00:42:47.083Z,52.99
2022-08-25T00:45:13.737Z,53.05
2022-08-25T00:47:41.887Z,53.14
2022-08-25T00:50:11.176Z,53.06
2022-08-25T00:52:41.659Z,53.29
2022-08-25T00:55:14.614Z,52.89
2022-08-25T00:57:45.701Z,52.96
2022-08-25T01:00:17.547Z,52.86
2022-08-25T01:02:46.079Z,52.83
2022-08-25T01:05:13.169Z,52.90
2022-08-25T01:07:44.638Z,52.74
2022-08-25T01:10:13.420Z,52.89
2022-08-25T01:12:41.209Z,52.94
2022-08-25T01:15:10.418Z,52.82
2022-08-25T01:17:47.571Z,52.89
2022-08-25T01:20:15.278Z,52.85
2022-08-25T01:22:43.317Z,52.97
2022-08-25T01:25:25.779Z,52.91
2022-08-25T01:27:52.740Z,52.80
2022-08-25T01:30:19.800Z,52.97
2022-08-25T01:32:46.471Z,53.21
2022-08-25T01:35:14.170Z,53.23
2022-08-25T01:37:40.834Z,53.37
2022-08-25T01:40:10.352Z,53.34
2022-08-25T01:42:46.875Z,53.55
2022-08-25T01:45:13.958Z,53.83
2022-08-25T01:47:41.081Z,54.04
2022-08-25T01:50:08.264Z,53.83
2022-08-25T01:52:49.827Z,54.18
2022-08-25T01:55:18.418Z,54.01
2022-08-25T01:57:45.234Z,54.10
2022-08-25T02:00:14.631Z,54.20
2022-08-25T02:02:42.769Z,54.10
2022-08-25T02:05:13.996Z,54.36
2022-08-25T02:07:42.470Z,54.52
2022-08-25T02:10:10.631Z,54.40
2022-08-25T02:12:38.997Z,54.44
2022-08-25T02:15:07.495Z,54.29
2022-08-25T02:17:36.660Z,54.34
2022-08-25T02:20:04.513Z,54.05
2022-08-25T02:22:31.182Z,53.88
2022-08-25T02:24:57.810Z,53.66
2022-08-25T02:27:24.571Z,53.78
2022-08-25T02:29:52.700Z,53.80
2022-08-25T02:32:19.428Z,53.63
2022-08-25T02:34:46.134Z,53.64
2022-08-25T02:37:12.868Z,53.77
2022-08-25T02:39:39.826Z,53.79
2022-08-25T02:42:06.854Z,53.95
2022-08-25T02:44:35.458Z,54.03
2022-08-25T02:47:04.011Z,54.41
2022-08-25T02:49:32.237Z,54.37
2022-08-25T02:52:00.820Z,54.50
2022-08-25T02:54:28.643Z,54.47
2022-08-25T02:56:55.503Z,54.57
2022-08-25T02:59:22.204Z,54.28
2022-08-25T03:01:49.086Z,54.55
2022-08-25T03:04:17.873Z,54.42
2022-08-25T03:06:45.362Z,54.28
2022-08-25T03:09:12.771Z,54.21
2022-08-25T03:11:39.767Z,54.26
2022-08-25T03:14:09.718Z,54.48
2022-08-25T03:16:36.637Z,54.54
2022-08-25T03:19:04.387Z,54.67
2022-08-25T03:21:34.231Z,54.60
2022-08-25T03:24:01.063Z,54.65
2022-08-25T03:26:46.455Z,54.43
2022-08-25T03:29:13.859Z,54.41
2022-08-25T03:31:41.047Z,54.59
2022-08-25T03:34:10.377Z,54.39
2022-08-25T03:36:38.450Z,54.67
2022-08-25T03:39:06.177Z,54.42
2022-08-25T03:41:32.883Z,54.51
2022-08-25T03:44:01.018Z,54.63
2022-08-25T03:46:29.838Z,54.69
2022-08-25T03:48:57.617Z,54.77
2022-08-25T03:51:26.298Z,54.49
2022-08-25T03:53:55.449Z,54.59
2022-08-25T03:56:22.103Z,54.29
2022-08-25T03:58:48.869Z,54.36
2022-08-25T04:01:16.686Z,54.22
2022-08-25T04:03:44.958Z,54.29
2022-08-25T04:06:11.996Z,54.54
2022-08-25T04:08:38.881Z,54.86
2022-08-25T04:11:10.229Z,54.88
2022-08-25T04:13:37.454Z,54.58
2022-08-25T04:16:04.570Z,54.71
2022-08-25T04:18:31.217Z,54.70
2022-08-25T04:21:05.567Z,54.50
2022-08-25T04:23:32.253Z,54.68
2022-08-25T04:25:58.942Z,54.80
2022-08-25T04:28:27.348Z,54.70
2022-08-25T04:30:54.257Z,54.79
2022-08-25T04:33:21.140Z,54.74
2022-08-25T04:35:49.127Z,55.11
2022-08-25T04:38:15.872Z,55.08
2022-08-25T04:40:42.543Z,55.22
2022-08-25T04:43:09.284Z,55.18
2022-08-25T04:45:38.432Z,55.69
2022-08-25T04:48:05.265Z,55.90
2022-08-25T04:50:32.042Z,55.75
2022-08-25T04:53:00.274Z,55.61
2022-08-25T04:55:27.097Z,55.74
2022-08-25T04:57:53.740Z,55.67
2022-08-25T05:00:20.469Z,55.54
2022-08-25T05:02:48.635Z,55.28
2022-08-25T05:05:16.198Z,55.00
2022-08-25T05:07:42.845Z,55.30
2022-08-25T05:10:09.705Z,54.88
2022-08-25T05:12:36.370Z,54.73
2022-08-25T05:15:24.029Z,54.95
2022-08-25T05:18:05.498Z,54.69
2022-08-25T05:20:32.207Z,54.38
2022-08-25T05:22:59.237Z,54.40
2022-08-25T05:25:25.928Z,54.28
2022-08-25T05:27:52.622Z,54.77
2022-08-25T05:30:19.386Z,54.76
2022-08-25T05:32:46.065Z,55.15
2022-08-25T05:35:15.575Z,54.44
2022-08-25T05:37:42.549Z,54.66
2022-08-25T05:40:10.375Z,54.43
2022-08-25T05:42:37.355Z,54.86
2022-08-25T05:45:04.168Z,55.21
2022-08-25T05:47:31.034Z,55.46
2022-08-25T05:49:58.126Z,55.61
2022-08-25T05:52:28.266Z,55.31
2022-08-25T05:54:54.987Z,56.23
2022-08-25T05:57:21.676Z,56.75
2022-08-25T05:59:48.545Z,56.97
2022-08-25T06:02:33.654Z,57.45
2022-08-25T06:05:00.329Z,57.40
2022-08-25T06:07:28.633Z,57.41
2022-08-25T06:09:55.317Z,56.37
2022-08-25T06:12:22.243Z,56.05
2022-08-25T06:14:51.625Z,57.26
2022-08-25T06:17:18.294Z,57.33
2022-08-25T06:19:44.917Z,56.77
2022-08-25T06:22:12.529Z,55.61
2022-08-25T06:24:40.888Z,55.09
2022-08-25T06:27:07.586Z,54.52
2022-08-25T06:29:34.519Z,54.07
2022-08-25T06:32:01.205Z,53.41
2022-08-25T06:34:27.953Z,53.39
2022-08-25T06:36:54.646Z,53.04
2022-08-25T06:39:22.797Z,53.06
2022-08-25T06:41:52.829Z,52.88
2022-08-25T06:44:19.546Z,52.25
2022-08-25T06:46:46.408Z,52.28
2022-08-25T06:49:13.301Z,52.39
2022-08-25T06:51:41.789Z,51.92
2022-08-25T06:54:10.249Z,51.58
2022-08-25T06:56:37.808Z,51.48
2022-08-25T06:59:07.658Z,51.30
2022-08-25T07:01:34.988Z,51.06
2022-08-25T07:04:05.726Z,50.76
2022-08-25T07:06:37.786Z,51.16
2022-08-25T07:09:05.900Z,51.59
2022-08-25T07:11:34.367Z,50.93
2022-08-25T07:14:01.968Z,50.70
2022-08-25T07:16:31.504Z,50.35
2022-08-25T07:19:00.121Z,49.64
2022-08-25T07:21:33.164Z,50.16
2022-08-25T07:24:00.967Z,49.69
2022-08-25T07:26:38.972Z,51.48
2022-08-25T07:29:09.622Z,50.40
2022-08-25T07:31:38.253Z,51.59
2022-08-25T07:34:24.289Z,50.39
2022-08-25T07:36:52.524Z,50.17
2022-08-25T07:39:21.877Z,50.83
2022-08-25T07:41:52.408Z,50.85
2022-08-25T07:44:20.871Z,51.16
2022-08-25T07:46:50.178Z,50.30
2022-08-25T07:49:17.320Z,50.13
2022-08-25T07:52:05.482Z,48.83
2022-08-25T07:54:34.137Z,48.79
2022-08-25T07:57:01.556Z,49.22
2022-08-25T07:59:28.385Z,47.75
2022-08-25T08:01:56.411Z,47.32
2022-08-25T08:04:23.077Z,46.86
2022-08-25T08:06:49.980Z,47.54
2022-08-25T08:09:16.745Z,46.92
2022-08-25T08:11:53.696Z,46.79
2022-08-25T08:14:21.165Z,46.45
2022-08-25T08:16:47.981Z,46.48
2022-08-25T08:19:16.425Z,46.34
2022-08-25T08:21:43.856Z,46.46
2022-08-25T08:24:25.053Z,46.53
2022-08-25T08:26:58.949Z,46.58
2022-08-25T08:29:26.354Z,46.28
2022-08-25T08:31:53.538Z,47.03
2022-08-25T08:34:24.736Z,47.05
2022-08-25T08:36:51.695Z,45.76
2022-08-25T08:39:18.497Z,46.11
2022-08-25T08:42:16.841Z,46.14
2022-08-25T08:45:02.631Z,45.11
2022-08-25T08:47:43.405Z,45.46
2022-08-25T08:50:30.780Z,45.72
2022-08-25T08:53:11.337Z,44.36
2022-08-25T08:55:42.717Z,44.56
2022-08-25T08:58:14.894Z,44.85
2022-08-25T09:00:52.371Z,43.91
2022-08-25T09:03:29.491Z,43.21
2022-08-25T09:06:02.653Z,42.34
2022-08-25T09:08:30.972Z,42.62
2022-08-25T09:11:03.228Z,43.37
2022-08-25T09:13:45.511Z,41.73
2022-08-25T09:16:37.623Z,41.97
2022-08-25T09:19:21.085Z,42.11
2022-08-25T09:21:57.816Z,42.83
2022-08-25T09:24:47.113Z,42.85
2022-08-25T09:27:22.826Z,42.87
2022-08-25T09:30:00.217Z,42.64
2022-08-25T09:32:31.173Z,41.26
2022-08-25T09:34:59.465Z,39.66
2022-08-25T09:37:28.316Z,40.43
2022-08-25T09:39:55.145Z,39.20
2022-08-25T09:42:49.819Z,39.02
2022-08-25T09:45:32.349Z,40.34
2022-08-25T09:47:58.962Z,40.07
2022-08-25T09:50:32.275Z,40.34
2022-08-25T09:53:17.002Z,39.48
2022-08-25T09:55:48.441Z,38.42
2022-08-25T09:58:19.739Z,39.77
2022-08-25T10:01:03.181Z,40.68
2022-08-25T10:03:36.670Z,38.90
2022-08-25T10:06:07.699Z,39.50
2022-08-25T10:08:56.826Z,39.33
2022-08-25T10:11:33.725Z,38.45
2022-08-25T10:14:03.026Z,39.24
2022-08-25T10:16:36.147Z,38.57
2022-08-25T10:19:08.307Z,38.59
2022-08-25T10:21:37.436Z,39.01
2022-08-25T10:24:07.621Z,38.99
2022-08-25T10:26:47.733Z,37.26
2022-08-25T10:29:32.538Z,39.01
2022-08-25T10:32:12.164Z,38.75
2022-08-25T10:34:46.302Z,37.44
2022-08-25T10:37:28.584Z,38.84
2022-08-25T10:40:11.171Z,38.34
2022-08-25T10:42:49.588Z,37.32
2022-08-25T10:45:40.199Z,38.16
2022-08-25T10:48:23.814Z,37.90
2022-08-25T10:50:56.757Z,37.45
2022-08-25T10:56:11.701Z,36.28
2022-08-25T10:59:09.253Z,36.65
2022-08-25T11:01:58.811Z,36.19
2022-08-25T11:04:32.098Z,36.60
2022-08-25T11:07:08.673Z,37.16
2022-08-25T11:09:41.035Z,37.24
2022-08-25T11:12:15.616Z,36.16
2022-08-25T11:14:49.796Z,37.01
2022-08-25T11:17:20.452Z,35.88
2022-08-25T11:19:50.320Z,36.26
2022-08-25T11:22:23.066Z,36.32
2022-08-25T11:25:18.703Z,36.07
2022-08-25T11:28:02.165Z,36.62
2022-08-25T11:30:29.045Z,35.59
2022-08-25T11:32:56.611Z,35.51
2022-08-25T11:35:28.383Z,35.06
2022-08-25T11:41:11.211Z,34.73
2022-08-25T11:44:08.127Z,35.22
2022-08-25T11:46:47.160Z,34.87
2022-08-25T11:49:39.430Z,34.90
2022-08-25T11:52:30.616Z,35.09
2022-08-25T11:55:11.570Z,34.87
2022-08-25T11:57:39.087Z,35.02
2022-08-25T12:00:40.995Z,33.90
2022-08-25T12:04:01.883Z,33.37
2022-08-25T12:06:34.012Z,34.12
2022-08-25T12:09:21.640Z,34.07
2022-08-25T12:11:55.433Z,33.87
2022-08-25T12:20:19.395Z,30.70
2022-08-25T12:29:16.838Z,30.45
2022-08-25T12:32:04.906Z,31.35
2022-08-25T12:37:56.287Z,32.50
2022-08-25T12:46:39.446Z,32.50
2022-08-25T12:49:28.770Z,32.79
2022-08-25T13:03:57.269Z,32.13
2022-08-25T13:09:49.282Z,31.84
2022-08-25T13:18:23.101Z,30.87
2022-08-25T13:23:42.602Z,30.90
2022-08-25T13:26:14.298Z,31.99
2022-08-25T13:28:50.232Z,31.51
2022-08-25T13:31:22.192Z,32.04
2022-08-25T13:55:31.036Z,32.26
2022-08-25T14:14:05.271Z,31.28
2022-08-25T14:17:16.385Z,32.15
2022-08-25T14:20:29.740Z,31.42
2022-08-25T14:25:42.425Z,32.90
2022-08-25T14:28:14.665Z,32.66
2022-08-25T14:30:46.239Z,32.38
2022-08-25T14:33:16.697Z,32.90
2022-08-25T14:35:47.496Z,32.04
2022-08-25T14:38:15.196Z,31.98
2022-08-25T14:40:44.667Z,31.79
2022-08-25T14:43:12.187Z,31.46
2022-08-25T14:45:50.200Z,32.47
2022-08-25T14:48:26.697Z,32.91
2022-08-25T14:50:56.134Z,32.64
2022-08-25T14:53:24.031Z,32.60
2022-08-25T14:55:54.212Z,32.49
2022-08-25T14:58:34.058Z,32.10
2022-08-25T15:01:01.978Z,32.07
2022-08-25T15:03:47.595Z,31.70
2022-08-25T15:06:24.673Z,32.10
2022-08-25T15:09:11.731Z,32.54
2022-08-25T15:11:42.037Z,31.68
2022-08-25T15:14:11.089Z,30.44
2022-08-25T15:16:42.476Z,30.05
2022-08-25T15:19:16.933Z,31.19
2022-08-25T15:21:46.412Z,30.64
2022-08-25T15:24:17.733Z,30.84
2022-08-25T15:26:56.728Z,30.55
2022-08-25T15:29:26.341Z,30.99
2022-08-25T15:31:53.533Z,30.97
2022-08-25T15:34:21.912Z,30.49
2022-08-25T15:36:51.252Z,30.43
2022-08-25T15:39:19.679Z,30.18
2022-08-25T15:41:49.239Z,30.14
2022-08-25T15:44:16.835Z,30.56
2022-08-25T15:46:51.844Z,30.76
2022-08-25T15:49:23.545Z,31.34
2022-08-25T15:51:52.690Z,32.21
2022-08-25T15:54:21.804Z,32.76
2022-08-25T15:56:48.657Z,33.15
2022-08-25T15:59:16.505Z,31.35
2022-08-25T16:01:46.578Z,31.22
2022-08-25T16:04:18.332Z,31.96
2022-08-25T16:06:54.279Z,32.43
2022-08-25T16:09:23.636Z,31.56
2022-08-25T16:11:56.752Z,31.42
2022-08-25T16:19:48.336Z,31.66
2022-08-25T16:22:16.507Z,31.97
2022-08-25T16:24:44.997Z,32.72
2022-08-25T16:27:13.055Z,32.97
2022-08-25T16:29:41.166Z,33.20
2022-08-25T16:32:08.740Z,32.52
2022-08-25T16:34:36.176Z,31.89
2022-08-25T16:37:03.300Z,31.69
2022-08-25T16:39:32.652Z,31.68
2022-08-25T16:41:59.422Z,32.20
2022-08-25T16:44:26.283Z,32.79
2022-08-25T16:46:56.561Z,33.09
2022-08-25T16:49:24.484Z,33.28
2022-08-25T16:51:56.698Z,32.85
2022-08-25T16:54:44.445Z,32.16
2022-08-25T16:57:13.625Z,32.23
2022-08-25T16:59:42.426Z,32.36
2022-08-25T17:02:11.060Z,32.23
2022-08-25T17:04:37.901Z,32.19
2022-08-25T17:07:06.610Z,32.75
2022-08-25T17:09:34.695Z,32.85
2022-08-25T17:12:01.706Z,32.64
2022-08-25T17:14:29.784Z,32.22
2022-08-25T17:17:01.462Z,32.69
2022-08-25T17:19:28.292Z,32.58
2022-08-25T17:21:55.197Z,32.52
2022-08-25T17:24:29.566Z,33.11
2022-08-25T17:26:59.094Z,33.09
2022-08-25T17:29:26.654Z,33.64
2022-08-25T17:31:54.823Z,33.36
2022-08-25T17:34:23.193Z,33.52
2022-08-25T17:36:50.890Z,34.11
2022-08-25T17:39:22.306Z,33.98
2022-08-25T17:41:49.953Z,34.66
2022-08-25T17:44:17.246Z,34.78
2022-08-25T17:46:47.339Z,34.97
2022-08-25T17:49:17.055Z,35.29
2022-08-25T17:51:43.938Z,35.73
2022-08-25T17:54:11.960Z,35.88
2022-08-25T17:56:39.328Z,36.25
2022-08-25T17:59:06.936Z,36.56
2022-08-25T18:01:40.532Z,36.73
2022-08-25T18:04:17.408Z,36.69
2022-08-25T18:06:48.624Z,37.06
2022-08-25T18:09:15.468Z,36.84
2022-08-25T18:11:42.612Z,36.97
2022-08-25T18:14:11.292Z,37.27
2022-08-25T18:16:38.845Z,37.57
2022-08-25T18:19:06.468Z,37.45
2022-08-25T18:21:37.319Z,37.48
2022-08-25T18:24:06.352Z,38.21
2022-08-25T18:26:33.620Z,38.26
2022-08-25T18:29:01.549Z,38.50
2022-08-25T18:31:28.531Z,38.21
2022-08-25T18:33:55.380Z,38.35
2022-08-25T18:36:22.440Z,38.51
2022-08-25T18:39:08.120Z,38.57
2022-08-25T18:41:38.478Z,39.05
2022-08-25T18:44:07.435Z,39.44
2022-08-25T18:46:35.017Z,39.26
2022-08-25T18:49:02.907Z,40.47
2022-08-25T18:51:33.151Z,39.60
2022-08-25T18:54:01.129Z,40.24
2022-08-25T18:56:28.354Z,41.11
2022-08-25T18:58:57.192Z,42.05
2022-08-25T19:01:24.432Z,41.01
2022-08-25T19:03:51.431Z,40.64
2022-08-25T19:06:19.442Z,40.83
2022-08-25T19:08:47.802Z,40.92
2022-08-25T19:11:15.965Z,41.41
2022-08-25T19:13:43.258Z,41.49
2022-08-25T19:16:13.844Z,41.87
2022-08-25T19:18:45.433Z,41.74
2022-08-25T19:21:12.471Z,42.24
2022-08-25T19:23:39.233Z,42.17
2022-08-25T19:26:08.286Z,42.68
2022-08-25T19:28:45.587Z,42.79
2022-08-25T19:31:18.238Z,42.81
2022-08-25T19:33:46.029Z,43.05
2022-08-25T19:36:13.870Z,43.30
2022-08-25T19:38:40.640Z,43.43
2022-08-25T19:41:12.974Z,43.56
2022-08-25T19:43:56.622Z,43.93
2022-08-25T19:46:32.705Z,44.05
2022-08-25T19:49:06.952Z,44.51
2022-08-25T19:51:34.596Z,44.87
2022-08-25T19:54:02.827Z,45.01
2022-08-25T19:56:29.990Z,45.36
2022-08-25T19:58:57.429Z,45.23
2022-08-25T20:01:26.094Z,45.25
2022-08-25T20:03:52.792Z,44.88
2022-08-25T20:06:19.857Z,44.74
2022-08-25T20:08:46.628Z,44.56
2022-08-25T20:11:26.271Z,44.95
2022-08-25T20:13:53.322Z,45.05
2022-08-25T20:16:20.674Z,45.10
2022-08-25T20:18:48.826Z,45.16
2022-08-25T20:21:15.480Z,45.17
2022-08-25T20:24:00.590Z,45.40
2022-08-25T20:26:29.181Z,45.04
2022-08-25T20:28:56.043Z,45.30
2022-08-25T20:31:22.849Z,45.18
2022-08-25T20:33:51.618Z,45.36
2022-08-25T20:36:19.373Z,45.27
2022-08-25T20:38:46.323Z,45.74
2022-08-25T20:41:13.540Z,45.77
2022-08-25T20:43:41.340Z,46.00
2022-08-25T20:46:09.138Z,45.91
2022-08-25T20:48:36.127Z,46.18
2022-08-25T20:51:06.575Z,46.45
2022-08-25T20:53:35.239Z,46.47
2022-08-25T20:56:02.359Z,46.84
2022-08-25T20:58:29.268Z,47.01
2022-08-25T21:00:56.508Z,47.15
2022-08-25T21:03:23.359Z,47.38
2022-08-25T21:05:53.548Z,47.54
2022-08-25T21:08:23.828Z,47.56
2022-08-25T21:10:52.158Z,47.71
2022-08-25T21:13:18.778Z,47.64
2022-08-25T21:15:48.553Z,47.58
2022-08-25T21:18:15.369Z,47.54
2022-08-25T21:20:42.984Z,47.68
2022-08-25T21:23:09.646Z,47.63
2022-08-25T21:25:41.435Z,48.01
2022-08-25T21:28:08.499Z,47.93
2022-08-25T21:30:35.241Z,47.82
2022-08-25T21:33:02.390Z,47.79
2022-08-25T21:35:29.104Z,47.51
2022-08-25T21:37:56.076Z,47.57
2022-08-25T21:40:23.058Z,47.49
2022-08-25T21:42:52.002Z,47.52
2022-08-25T21:45:21.654Z,47.69
2022-08-25T21:47:48.758Z,47.76
2022-08-25T21:50:15.504Z,47.58
2022-08-25T21:52:42.428Z,47.66
2022-08-25T21:55:15.833Z,47.74
2022-08-25T21:57:43.129Z,47.54
2022-08-25T22:00:14.841Z,47.81
2022-08-25T22:02:43.938Z,47.74
2022-08-25T22:05:11.477Z,47.59
2022-08-25T22:07:42.091Z,47.45
2022-08-25T22:10:16.725Z,47.26
2022-08-25T22:12:44.655Z,47.39
2022-08-25T22:15:15.544Z,47.46
2022-08-25T22:17:42.393Z,47.70
2022-08-25T22:20:10.626Z,47.66
2022-08-25T22:22:37.388Z,47.58
2022-08-25T22:25:05.458Z,47.54
2022-08-25T22:27:32.892Z,47.51
2022-08-25T22:30:00.738Z,47.58
2022-08-25T22:32:28.721Z,47.81
2022-08-25T22:34:55.349Z,47.75
2022-08-25T22:37:22.284Z,47.70
2022-08-25T22:39:49.391Z,47.50
2022-08-25T22:42:16.294Z,47.49
2022-08-25T22:44:42.962Z,47.62
2022-08-25T22:47:11.894Z,47.71
2022-08-25T22:49:40.493Z,48.08
2022-08-25T22:52:09.275Z,47.81
2022-08-25T22:54:38.391Z,48.03
2022-08-25T22:57:06.794Z,48.07
2022-08-25T22:59:34.162Z,48.03
2022-08-25T23:02:01.043Z,48.18
2022-08-25T23:04:27.768Z,48.22
2022-08-25T23:06:56.149Z,48.40
2022-08-25T23:09:24.935Z,48.15
2022-08-25T23:11:51.667Z,48.61
2022-08-25T23:14:18.711Z,48.40
2022-08-25T23:16:45.590Z,48.93
2022-08-25T23:19:14.275Z,49.19
2022-08-25T23:22:00.112Z,49.11
2022-08-25T23:24:30.727Z,49.34
2022-08-25T23:26:59.176Z,49.81
2022-08-25T23:29:27.764Z,50.02
2022-08-25T23:31:55.577Z,50.28
2022-08-25T23:34:23.138Z,50.00
2022-08-25T23:36:50.456Z,49.84
2022-08-25T23:39:17.182Z,49.77
2022-08-25T23:41:45.241Z,49.82
2022-08-25T23:44:17.221Z,49.78
2022-08-25T23:46:44.678Z,49.69
2022-08-25T23:49:11.604Z,49.71
2022-08-25T23:51:38.631Z,49.63
2022-08-25T23:54:07.091Z,49.73
2022-08-25T23:56:37.150Z,49.82
2022-08-25T23:59:10.744Z,50.15
